createdAt,value
2023-07-28T00:00:39.257Z,5.33
2023-07-28T00:03:05.983Z,5.73
2023-07-28T00:05:32.586Z,5.67
2023-07-28T00:07:59.157Z,5.60
2023-07-28T00:10:25.769Z,6.00
2023-07-28T00:12:52.475Z,6.53
2023-07-28T00:15:19.077Z,5.20
2023-07-28T00:17:45.782Z,5.33
2023-07-28T00:20:12.670Z,5.70
2023-07-28T00:22:39.288Z,9.57
2023-07-28T00:25:06.274Z,5.63
2023-07-28T00:27:32.897Z,5.77
2023-07-28T00:29:59.467Z,5.23
2023-07-28T00:32:26.085Z,6.63
2023-07-28T00:34:52.704Z,5.30
2023-07-28T00:37:19.765Z,7.50
2023-07-28T00:39:46.603Z,5.43
2023-07-28T00:42:13.180Z,5.33
2023-07-28T00:44:39.746Z,9.20
2023-07-28T00:47:06.527Z,6.60
2023-07-28T00:49:33.190Z,5.43
2023-07-28T00:51:59.848Z,6.00
2023-07-28T00:54:26.517Z,7.57
2023-07-28T00:56:53.132Z,5.47
2023-07-28T00:59:19.872Z,5.80
2023-07-28T01:01:46.524Z,7.60
2023-07-28T01:04:13.401Z,6.07
2023-07-28T01:06:44.847Z,5.63
2023-07-28T01:09:16.073Z,6.00
2023-07-28T01:11:59.053Z,8.87
2023-07-28T01:14:26.637Z,6.83
2023-07-28T01:16:53.442Z,6.03
2023-07-28T01:19:22.339Z,7.00
2023-07-28T01:22:13.196Z,6.07
2023-07-28T01:24:53.199Z,6.37
2023-07-28T01:27:20.079Z,7.40
2023-07-28T01:29:47.050Z,6.73
2023-07-28T01:32:13.648Z,7.00
2023-07-28T01:34:40.215Z,7.23
2023-07-28T01:37:07.100Z,7.93
2023-07-28T01:39:34.443Z,8.40
2023-07-28T01:42:01.002Z,7.90
2023-07-28T01:44:27.773Z,8.93
2023-07-28T01:46:54.328Z,8.10
2023-07-28T01:49:20.938Z,7.30
2023-07-28T01:51:47.542Z,7.30
2023-07-28T01:54:14.128Z,8.10
2023-07-28T01:56:40.678Z,8.10
2023-07-28T01:59:07.236Z,7.63
2023-07-28T02:01:34.051Z,10.20
2023-07-28T02:04:00.678Z,7.40
2023-07-28T02:06:28.723Z,7.70
2023-07-28T02:08:55.315Z,7.77
2023-07-28T02:11:21.873Z,7.50
2023-07-28T02:13:48.553Z,7.33
2023-07-28T02:16:15.197Z,7.00
2023-07-28T02:18:41.781Z,8.77
2023-07-28T02:21:10.004Z,8.50
2023-07-28T02:23:36.572Z,8.13
2023-07-28T02:26:03.153Z,9.47
2023-07-28T02:28:29.869Z,5.87
2023-07-28T02:30:56.455Z,7.43
2023-07-28T02:33:23.262Z,6.20
2023-07-28T02:35:49.827Z,10.23
2023-07-28T02:38:16.469Z,7.30
2023-07-28T02:40:43.868Z,7.77
2023-07-28T02:43:10.430Z,5.93
2023-07-28T02:45:37.016Z,6.10
2023-07-28T02:48:03.999Z,5.70
2023-07-28T02:50:30.840Z,5.57
2023-07-28T02:52:57.407Z,6.53
2023-07-28T02:55:23.981Z,6.00
2023-07-28T02:57:50.551Z,5.37
2023-07-28T03:00:17.148Z,5.20
2023-07-28T03:02:43.850Z,5.40
2023-07-28T03:05:10.589Z,7.23
2023-07-28T03:07:37.221Z,5.63
2023-07-28T03:10:04.358Z,6.03
2023-07-28T03:12:30.921Z,6.40
2023-07-28T03:14:57.513Z,6.97
2023-07-28T03:17:24.082Z,7.50
2023-07-28T03:19:50.631Z,7.27
2023-07-28T03:22:17.325Z,7.77
2023-07-28T03:24:47.116Z,5.93
2023-07-28T03:27:13.694Z,5.40
2023-07-28T03:29:40.491Z,7.03
2023-07-28T03:32:07.176Z,5.27
2023-07-28T03:34:33.817Z,8.90
2023-07-28T03:37:00.513Z,6.33
2023-07-28T03:39:27.081Z,6.30
2023-07-28T03:41:54.156Z,6.03
2023-07-28T03:44:20.744Z,5.97
2023-07-28T03:46:47.754Z,6.23
2023-07-28T03:49:14.421Z,8.70
2023-07-28T03:51:41.019Z,9.40
2023-07-28T03:54:07.687Z,6.83
2023-07-28T03:56:34.517Z,6.67
2023-07-28T03:59:02.373Z,9.07
2023-07-28T04:01:28.971Z,7.50
2023-07-28T04:03:55.672Z,8.57
2023-07-28T04:06:41.755Z,7.40
2023-07-28T04:09:08.994Z,6.63
2023-07-28T04:11:35.621Z,8.23
2023-07-28T04:14:02.441Z,7.60
2023-07-28T04:16:29.048Z,10.63
2023-07-28T04:18:55.624Z,6.70
2023-07-28T04:21:22.364Z,7.27
2023-07-28T04:23:48.988Z,8.40
2023-07-28T04:26:15.603Z,6.93
2023-07-28T04:28:42.191Z,8.60
2023-07-28T04:31:08.776Z,8.93
2023-07-28T04:33:35.608Z,7.43
2023-07-28T04:36:05.632Z,9.47
2023-07-28T04:38:32.415Z,8.23
2023-07-28T04:40:59.041Z,7.10
2023-07-28T04:43:25.731Z,6.57
2023-07-28T04:45:52.345Z,9.67
2023-07-28T04:48:19.020Z,8.17
2023-07-28T04:50:46.081Z,6.67
2023-07-28T04:53:12.750Z,6.73
2023-07-28T04:55:39.370Z,8.43
2023-07-28T04:58:05.959Z,7.87
2023-07-28T05:00:32.696Z,7.00
2023-07-28T05:02:59.281Z,7.47
2023-07-28T05:05:25.854Z,9.97
2023-07-28T05:07:52.420Z,8.63
2023-07-28T05:10:18.968Z,10.03
2023-07-28T05:12:45.515Z,9.37
2023-07-28T05:15:12.154Z,8.80
2023-07-28T05:17:38.849Z,7.10
2023-07-28T05:20:05.955Z,8.33
2023-07-28T05:22:32.661Z,11.50
2023-07-28T05:24:59.217Z,10.77
2023-07-28T05:27:26.048Z,8.30
2023-07-28T05:29:52.700Z,10.03
2023-07-28T05:32:19.286Z,9.47
2023-07-28T05:34:46.050Z,11.57
2023-07-28T05:37:12.732Z,11.30
2023-07-28T05:39:39.287Z,9.47
2023-07-28T05:42:06.136Z,12.20
2023-07-28T05:44:32.824Z,10.63
2023-07-28T05:46:59.397Z,11.33
2023-07-28T05:49:25.967Z,13.80
2023-07-28T05:51:52.531Z,11.40
2023-07-28T05:54:19.096Z,10.93
2023-07-28T05:56:45.727Z,11.80
2023-07-28T05:59:12.359Z,11.27
2023-07-28T06:01:38.923Z,17.00
2023-07-28T06:04:05.662Z,16.37
2023-07-28T06:06:33.026Z,12.50
2023-07-28T06:08:59.583Z,12.37
2023-07-28T06:11:27.154Z,11.63
2023-07-28T06:13:53.756Z,11.60
2023-07-28T06:16:20.331Z,15.17
2023-07-28T06:18:46.912Z,12.10
2023-07-28T06:21:13.502Z,10.73
2023-07-28T06:23:40.126Z,11.37
2023-07-28T06:26:06.784Z,11.93
2023-07-28T06:28:33.470Z,12.07
2023-07-28T06:31:00.168Z,10.70
2023-07-28T06:33:29.060Z,13.77
2023-07-28T06:35:55.746Z,14.90
2023-07-28T06:38:22.471Z,12.07
2023-07-28T06:40:49.156Z,11.43
2023-07-28T06:43:15.748Z,10.27
2023-07-28T06:45:42.351Z,10.53
2023-07-28T06:48:09.463Z,11.60
2023-07-28T06:50:36.048Z,9.90
2023-07-28T06:53:02.797Z,12.93
2023-07-28T06:55:29.386Z,7.90
2023-07-28T06:57:55.948Z,11.00
2023-07-28T07:00:22.537Z,8.30
2023-07-28T07:02:49.557Z,7.90
2023-07-28T07:05:16.493Z,7.20
2023-07-28T07:07:43.303Z,7.73
2023-07-28T07:10:10.193Z,7.80
2023-07-28T07:12:37.269Z,8.27
2023-07-28T07:15:04.341Z,8.43
2023-07-28T07:17:30.965Z,7.27
2023-07-28T07:19:57.670Z,8.33
2023-07-28T07:22:24.614Z,6.97
2023-07-28T07:24:51.190Z,10.33
2023-07-28T07:27:18.014Z,10.77
2023-07-28T07:29:44.581Z,6.57
2023-07-28T07:32:12.113Z,6.73
2023-07-28T07:34:39.251Z,6.10
2023-07-28T07:37:06.340Z,6.40
2023-07-28T07:39:34.658Z,6.03
2023-07-28T07:42:01.367Z,7.07
2023-07-28T07:44:28.168Z,6.37
2023-07-28T07:46:55.022Z,8.57
2023-07-28T07:49:21.662Z,7.93
2023-07-28T07:51:48.306Z,5.93
2023-07-28T07:54:16.829Z,5.70
2023-07-28T07:56:43.621Z,5.93
2023-07-28T07:59:10.490Z,6.37
2023-07-28T08:01:37.318Z,5.43
2023-07-28T08:04:04.337Z,7.20
2023-07-28T08:06:30.956Z,6.93
2023-07-28T08:08:59.576Z,5.72
2023-07-28T08:11:26.223Z,8.32
2023-07-28T08:13:52.784Z,5.03
2023-07-28T08:16:19.596Z,6.50
2023-07-28T08:18:46.467Z,5.25
2023-07-28T08:21:13.075Z,5.32
2023-07-28T08:23:39.645Z,4.70
2023-07-28T08:26:06.228Z,6.32
2023-07-28T08:28:33.960Z,3.97
2023-07-28T08:31:00.798Z,3.70
2023-07-28T08:33:28.059Z,4.13
2023-07-28T08:35:54.648Z,3.92
2023-07-28T08:38:21.300Z,4.03
2023-07-28T08:40:48.062Z,3.58
2023-07-28T08:43:14.767Z,3.42
2023-07-28T08:45:41.696Z,3.10
2023-07-28T08:48:09.281Z,3.20
2023-07-28T08:50:37.448Z,3.20
2023-07-28T08:53:04.012Z,3.53
2023-07-28T08:55:30.769Z,3.42
2023-07-28T08:58:14.075Z,3.45
2023-07-28T09:00:41.948Z,2.85
2023-07-28T09:03:12.458Z,3.03
2023-07-28T09:05:41.426Z,3.20
2023-07-28T09:08:08.934Z,3.47
2023-07-28T09:10:46.767Z,3.58
2023-07-28T09:13:17.303Z,3.83
2023-07-28T09:15:45.273Z,4.07
2023-07-28T09:18:13.406Z,4.60
2023-07-28T09:20:45.105Z,3.90
2023-07-28T09:23:14.218Z,3.70
2023-07-28T09:25:40.970Z,3.55
2023-07-28T09:28:07.756Z,3.50
2023-07-28T09:30:50.330Z,3.65
2023-07-28T09:33:34.366Z,3.70
2023-07-28T09:36:13.665Z,3.53
2023-07-28T09:38:42.144Z,4.57
2023-07-28T09:41:11.412Z,3.90
2023-07-28T09:43:38.913Z,3.30
2023-07-28T09:46:10.241Z,3.25
2023-07-28T09:48:39.497Z,3.33
2023-07-28T09:51:12.724Z,4.88
2023-07-28T09:53:46.968Z,3.40
2023-07-28T09:56:17.618Z,7.68
2023-07-28T09:58:53.438Z,3.45
2023-07-28T10:01:24.863Z,4.45
2023-07-28T10:03:52.186Z,3.72
2023-07-28T10:06:20.855Z,3.00
2023-07-28T10:08:47.795Z,3.22
2023-07-28T10:11:15.839Z,3.50
2023-07-28T10:13:47.385Z,3.95
2023-07-28T10:16:17.067Z,5.65
2023-07-28T10:18:54.156Z,4.25
2023-07-28T10:21:20.997Z,3.40
2023-07-28T10:23:58.732Z,3.58
2023-07-28T10:26:46.585Z,3.47
2023-07-28T10:29:17.053Z,3.20
2023-07-28T10:31:55.454Z,2.90
2023-07-28T10:34:23.007Z,2.97
2023-07-28T10:37:01.051Z,2.70
2023-07-28T10:39:28.228Z,2.95
2023-07-28T10:42:10.042Z,3.10
2023-07-28T10:44:37.616Z,2.90
2023-07-28T10:47:09.356Z,3.13
2023-07-28T10:49:36.029Z,2.60
2023-07-28T10:52:02.664Z,2.95
2023-07-28T10:54:31.646Z,3.00
2023-07-28T10:57:02.321Z,8.45
2023-07-28T10:59:29.211Z,3.80
2023-07-28T11:01:58.039Z,5.15
2023-07-28T11:04:24.747Z,3.83
2023-07-28T11:06:52.496Z,3.70
2023-07-28T11:09:21.062Z,3.80
2023-07-28T11:11:48.686Z,4.27
2023-07-28T11:14:17.608Z,4.18
2023-07-28T11:16:45.970Z,4.70
2023-07-28T11:19:14.851Z,4.30
2023-07-28T11:21:43.221Z,4.87
2023-07-28T11:24:18.761Z,4.97
2023-07-28T11:26:46.954Z,5.40
2023-07-28T11:29:13.745Z,4.45
2023-07-28T11:31:42.473Z,4.60
2023-07-28T11:34:16.550Z,4.82
2023-07-28T11:36:43.610Z,4.35
2023-07-28T11:39:11.722Z,4.07
2023-07-28T11:41:39.772Z,3.60
2023-07-28T11:44:07.206Z,4.00
2023-07-28T11:46:35.702Z,3.85
2023-07-28T11:49:20.205Z,3.30
2023-07-28T11:51:49.331Z,3.40
2023-07-28T11:54:17.741Z,3.20
2023-07-28T11:56:46.364Z,3.20
2023-07-28T11:59:15.276Z,3.80
2023-07-28T12:07:15.413Z,3.38
2023-07-28T12:12:25.760Z,4.00
2023-07-28T12:17:27.618Z,4.15
2023-07-28T12:20:17.836Z,4.38
2023-07-28T12:22:46.059Z,3.35
2023-07-28T12:25:12.933Z,3.30
2023-07-28T12:27:39.669Z,3.30
2023-07-28T12:30:16.181Z,3.30
2023-07-28T12:38:41.959Z,3.95
2023-07-28T12:48:23.697Z,4.05
2023-07-28T12:50:50.660Z,3.78
2023-07-28T12:53:22.052Z,3.90
2023-07-28T13:03:18.957Z,5.50
2023-07-28T13:05:47.870Z,4.57
2023-07-28T13:08:14.443Z,8.90
2023-07-28T13:13:14.055Z,4.53
2023-07-28T13:15:41.993Z,6.10
2023-07-28T13:18:08.774Z,5.33
2023-07-28T13:20:35.492Z,5.50
2023-07-28T13:23:02.133Z,4.33
2023-07-28T13:25:29.038Z,4.20
2023-07-28T13:27:55.731Z,5.57
2023-07-28T13:30:22.633Z,4.67
2023-07-28T13:32:49.368Z,5.43
2023-07-28T13:35:16.385Z,4.13
2023-07-28T13:37:43.133Z,4.25
2023-07-28T13:40:12.148Z,5.32
2023-07-28T13:42:40.475Z,3.80
2023-07-28T13:45:07.784Z,3.65
2023-07-28T13:47:34.383Z,4.18
2023-07-28T13:50:01.211Z,4.55
2023-07-28T13:52:28.102Z,4.15
2023-07-28T13:57:25.251Z,5.40
2023-07-28T13:59:51.876Z,4.63
2023-07-28T14:02:21.344Z,4.60
2023-07-28T14:04:47.972Z,4.35
2023-07-28T14:07:14.623Z,4.47
2023-07-28T14:09:41.432Z,4.63
2023-07-28T14:12:08.710Z,4.30
2023-07-28T14:14:35.501Z,4.60
2023-07-28T14:17:02.561Z,4.03
2023-07-28T14:19:29.310Z,4.30
2023-07-28T14:21:55.975Z,4.17
2023-07-28T14:24:22.594Z,3.80
2023-07-28T14:26:49.249Z,3.90
2023-07-28T14:29:15.800Z,4.90
2023-07-28T14:31:42.401Z,3.83
2023-07-28T14:34:08.990Z,3.50
2023-07-28T14:36:36.140Z,3.70
2023-07-28T14:39:03.755Z,3.50
2023-07-28T14:41:30.744Z,3.50
2023-07-28T14:43:57.364Z,3.35
2023-07-28T14:46:25.931Z,3.50
2023-07-28T14:48:53.225Z,3.38
2023-07-28T14:51:19.824Z,3.13
2023-07-28T14:53:47.797Z,3.00
2023-07-28T14:56:16.131Z,4.97
2023-07-28T14:58:43.033Z,2.95
2023-07-28T15:01:12.017Z,3.33
2023-07-28T15:03:39.287Z,3.63
2023-07-28T15:06:06.076Z,2.70
2023-07-28T15:08:33.162Z,3.15
2023-07-28T15:10:59.994Z,2.92
2023-07-28T15:13:26.635Z,2.63
2023-07-28T15:15:53.458Z,2.55
2023-07-28T15:18:20.254Z,2.50
2023-07-28T15:20:46.903Z,3.75
2023-07-28T15:23:13.560Z,4.43
2023-07-28T15:25:43.316Z,2.97
2023-07-28T15:28:11.788Z,2.63
2023-07-28T15:30:38.575Z,2.40
2023-07-28T15:33:05.293Z,2.90
2023-07-28T15:35:31.914Z,2.63
2023-07-28T15:37:58.534Z,2.55
2023-07-28T15:40:25.159Z,3.75
2023-07-28T15:42:51.747Z,2.80
2023-07-28T15:45:18.449Z,2.50
2023-07-28T15:47:45.118Z,2.53
2023-07-28T15:50:11.798Z,3.35
2023-07-28T15:52:38.622Z,3.30
2023-07-28T15:55:06.644Z,2.53
2023-07-28T15:57:33.282Z,2.90
2023-07-28T15:59:59.976Z,4.03
2023-07-28T16:02:26.704Z,2.45
2023-07-28T16:04:53.290Z,2.30
2023-07-28T16:07:19.901Z,2.55
2023-07-28T16:09:46.689Z,4.65
2023-07-28T16:12:13.423Z,2.75
2023-07-28T16:14:40.149Z,2.35
2023-07-28T16:17:07.230Z,2.45
2023-07-28T16:19:33.889Z,4.60
2023-07-28T16:22:03.448Z,2.30
2023-07-28T16:24:30.143Z,2.97
2023-07-28T16:26:56.755Z,4.43
2023-07-28T16:29:23.389Z,2.78
2023-07-28T16:31:50.197Z,2.67
2023-07-28T16:34:16.917Z,2.55
2023-07-28T16:36:43.484Z,2.47
2023-07-28T16:39:10.288Z,7.07
2023-07-28T16:41:37.107Z,2.50
2023-07-28T16:44:04.280Z,3.85
2023-07-28T16:46:30.844Z,2.70
2023-07-28T16:48:57.457Z,2.60
2023-07-28T16:51:24.225Z,5.63
2023-07-28T16:53:52.069Z,5.40
2023-07-28T16:56:18.670Z,2.60
2023-07-28T16:58:45.280Z,2.75
2023-07-28T17:01:11.946Z,2.70
2023-07-28T17:03:38.658Z,2.45
2023-07-28T17:06:06.376Z,3.25
2023-07-28T17:08:33.092Z,3.83
2023-07-28T17:10:59.906Z,2.58
2023-07-28T17:13:26.498Z,2.60
2023-07-28T17:15:53.263Z,2.63
2023-07-28T17:18:19.965Z,3.97
2023-07-28T17:20:46.986Z,2.80
2023-07-28T17:23:13.577Z,3.00
2023-07-28T17:25:40.542Z,2.50
2023-07-28T17:28:07.165Z,3.60
2023-07-28T17:30:33.928Z,3.25
2023-07-28T17:33:00.722Z,3.00
2023-07-28T17:35:27.419Z,3.78
2023-07-28T17:37:54.014Z,4.05
2023-07-28T17:40:20.714Z,2.60
2023-07-28T17:42:47.766Z,3.95
2023-07-28T17:45:14.475Z,2.70
2023-07-28T17:47:41.356Z,4.22
2023-07-28T17:50:09.683Z,3.25
2023-07-28T17:52:37.038Z,6.93
2023-07-28T17:55:04.066Z,3.28
2023-07-28T17:57:30.691Z,5.28
2023-07-28T17:59:57.740Z,2.80
2023-07-28T18:02:24.372Z,3.70
2023-07-28T18:04:50.993Z,3.13
2023-07-28T18:07:17.586Z,3.55
2023-07-28T18:09:44.201Z,3.20
2023-07-28T18:12:10.752Z,2.85
2023-07-28T18:14:37.353Z,3.35
2023-07-28T18:17:04.082Z,3.70
2023-07-28T18:19:30.808Z,4.53
2023-07-28T18:21:57.479Z,5.30
2023-07-28T18:24:24.145Z,2.90
2023-07-28T18:26:50.849Z,3.00
2023-07-28T18:29:17.501Z,4.05
2023-07-28T18:31:44.156Z,3.38
2023-07-28T18:34:10.774Z,2.80
2023-07-28T18:36:37.945Z,3.88
2023-07-28T18:39:06.827Z,3.30
2023-07-28T18:41:34.501Z,3.10
2023-07-28T18:44:01.479Z,3.90
2023-07-28T18:46:28.099Z,5.85
2023-07-28T18:48:55.069Z,4.50
2023-07-28T18:51:21.947Z,4.63
2023-07-28T18:53:48.626Z,3.90
2023-07-28T18:56:15.294Z,5.03
2023-07-28T18:58:43.126Z,3.85
2023-07-28T19:01:10.009Z,3.63
2023-07-28T19:03:36.964Z,3.92
2023-07-28T19:06:04.160Z,3.65
2023-07-28T19:08:53.879Z,3.70
2023-07-28T19:11:20.615Z,3.65
2023-07-28T19:13:47.895Z,4.00
2023-07-28T19:16:14.626Z,5.80
2023-07-28T19:18:41.219Z,6.10
2023-07-28T19:21:07.894Z,4.03
2023-07-28T19:23:34.548Z,6.33
2023-07-28T19:26:01.543Z,4.80
2023-07-28T19:28:28.286Z,4.90
2023-07-28T19:30:56.692Z,4.70
2023-07-28T19:33:23.275Z,5.90
2023-07-28T19:35:49.929Z,4.37
2023-07-28T19:38:16.521Z,7.83
2023-07-28T19:40:43.150Z,5.60
2023-07-28T19:43:09.838Z,5.47
2023-07-28T19:45:36.640Z,4.50
2023-07-28T19:48:04.314Z,7.30
2023-07-28T19:50:45.275Z,8.17
2023-07-28T19:53:13.329Z,4.97
2023-07-28T19:55:39.968Z,4.40
2023-07-28T19:58:08.204Z,4.43
2023-07-28T20:00:34.927Z,4.83
2023-07-28T20:03:01.605Z,4.23
2023-07-28T20:05:28.327Z,7.60
2023-07-28T20:07:54.957Z,4.90
2023-07-28T20:10:22.228Z,4.23
2023-07-28T20:12:48.798Z,4.77
2023-07-28T20:15:15.399Z,4.40
2023-07-28T20:17:42.060Z,4.00
2023-07-28T20:20:09.260Z,4.00
2023-07-28T20:22:35.899Z,4.70
2023-07-28T20:25:02.544Z,4.13
2023-07-28T20:27:31.065Z,4.47
2023-07-28T20:29:58.038Z,4.07
2023-07-28T20:32:27.640Z,3.97
2023-07-28T20:34:54.896Z,4.50
2023-07-28T20:37:21.646Z,4.30
2023-07-28T20:39:48.285Z,4.20
2023-07-28T20:42:18.354Z,5.60
2023-07-28T20:44:45.551Z,4.43
2023-07-28T20:47:13.027Z,7.03
2023-07-28T20:49:39.764Z,4.87
2023-07-28T20:52:06.777Z,4.20
2023-07-28T20:54:33.415Z,5.03
2023-07-28T20:57:01.446Z,6.70
2023-07-28T20:59:28.149Z,4.60
2023-07-28T21:01:54.937Z,5.67
2023-07-28T21:04:21.626Z,4.67
2023-07-28T21:06:48.189Z,5.47
2023-07-28T21:09:15.195Z,7.47
2023-07-28T21:11:41.806Z,7.67
2023-07-28T21:14:08.667Z,5.07
2023-07-28T21:16:35.612Z,4.37
2023-07-28T21:19:02.731Z,8.80
2023-07-28T21:21:29.342Z,4.83
2023-07-28T21:23:55.987Z,6.20
2023-07-28T21:26:22.617Z,4.47
2023-07-28T21:28:49.223Z,5.33
2023-07-28T21:31:15.863Z,4.90
2023-07-28T21:33:42.849Z,5.83
2023-07-28T21:36:09.516Z,6.80
2023-07-28T21:38:36.116Z,8.00
2023-07-28T21:41:03.738Z,4.90
2023-07-28T21:43:30.371Z,4.60
2023-07-28T21:45:57.637Z,4.80
2023-07-28T21:48:24.228Z,5.17
2023-07-28T21:50:50.815Z,9.77
2023-07-28T21:53:17.397Z,5.43
2023-07-28T21:55:44.168Z,11.60
2023-07-28T21:58:11.041Z,5.50
2023-07-28T22:00:37.801Z,6.00
2023-07-28T22:03:04.467Z,5.73
2023-07-28T22:05:31.083Z,6.83
2023-07-28T22:07:57.672Z,5.93
2023-07-28T22:10:24.854Z,6.40
2023-07-28T22:12:51.438Z,6.50
2023-07-28T22:15:17.998Z,6.03
2023-07-28T22:17:44.636Z,6.03
2023-07-28T22:20:12.406Z,6.37
2023-07-28T22:22:38.980Z,7.07
2023-07-28T22:25:05.853Z,7.97
2023-07-28T22:27:32.427Z,9.60
2023-07-28T22:29:59.853Z,6.43
2023-07-28T22:32:26.598Z,7.60
2023-07-28T22:34:53.214Z,9.60
2023-07-28T22:37:19.778Z,6.53
2023-07-28T22:39:46.359Z,7.03
2023-07-28T22:42:12.947Z,7.00
2023-07-28T22:44:39.601Z,8.83
2023-07-28T22:47:06.231Z,6.87
2023-07-28T22:49:33.024Z,7.23
2023-07-28T22:51:59.626Z,7.23
2023-07-28T22:54:26.189Z,6.93
2023-07-28T22:56:53.494Z,9.17
2023-07-28T22:59:20.773Z,6.97
2023-07-28T23:01:47.349Z,7.43
2023-07-28T23:04:14.208Z,7.97
2023-07-28T23:06:40.882Z,11.37
2023-07-28T23:09:07.612Z,7.00
2023-07-28T23:11:34.162Z,11.40
2023-07-28T23:14:00.745Z,13.37
2023-07-28T23:16:27.338Z,7.80
2023-07-28T23:18:53.952Z,10.13
2023-07-28T23:21:20.505Z,9.80
2023-07-28T23:23:47.064Z,8.00
2023-07-28T23:26:13.946Z,8.20
2023-07-28T23:28:40.745Z,9.43
2023-07-28T23:31:17.939Z,8.43
2023-07-28T23:33:45.862Z,8.17
2023-07-28T23:36:12.535Z,10.57
2023-07-28T23:38:39.581Z,19.00
2023-07-28T23:41:07.048Z,7.67
2023-07-28T23:43:33.969Z,9.93
2023-07-28T23:46:01.351Z,9.53
2023-07-28T23:48:31.814Z,7.93
2023-07-28T23:50:58.705Z,11.40
2023-07-28T23:53:26.107Z,7.87
2023-07-28T23:55:52.985Z,13.60
2023-07-28T23:58:19.626Z,12.47
